Time;durP1;ratioP1;P1;durP2;ratioP2;P2;SDS_P1;SDS_P2;PMS_P1;PMS_P2;Temp;Humidity;BMP_temperature;BMP_pressure;BME280_temperature;BME280_humidity;BME280_pressure;Samples;Min_cycle;Max_cycle;Signal;HPM_P1;HPM_P2
2023/05/04 00:01:00;;;;;;;36.90;27.40;;;;;;;9.16;99.98;97288.29;106553;1283;138764;-86
2023/05/04 00:04:25;;;;;;;33.60;26.10;;;;;;;9.15;99.92;97281.16;106624;1278;22638;-86
2023/05/04 00:07:43;;;;;;;;;;;;;;;;;;;;;
2023/05/04 00:11:11;;;;;;;37.90;28.50;;;;;;;9.14;99.90;97272.30;106675;1278;24275;-85
2023/05/04 00:17:39;;;;;;;;;;;;;;;;;;;;;
2023/05/04 00:20:59;;;;;;;;;;;;;;;;;;;;;
2023/05/04 00:24:19;;;;;;;;;;;;;;;;;;;;;
2023/05/04 00:27:40;;;;;;;33.00;24.60;;;;;;;9.04;98.58;97259.73;106756;1277;22536;-86
2023/05/04 00:30:59;;;;;;;31.70;25.80;;;;;;;8.99;98.51;97256.31;106623;1283;138375;-86
2023/05/04 00:34:18;;;;;;;28.20;22.70;;;;;;;8.97;98.61;97258.67;108940;1281;22579;-86
2023/05/04 00:37:45;;;;;;;30.70;23.40;;;;;;;8.97;98.10;97257.11;109713;1283;138900;-87
2023/05/04 00:41:11;;;;;;;27.30;22.50;;;;;;;8.90;97.65;97258.91;109792;1283;22181;-86
2023/05/04 00:44:28;;;;;;;;;;;;;;;;;;;;;
2023/05/04 00:47:47;;;;;;;;;;;;;;;;;;;;;
2023/05/04 00:51:14;;;;;;;22.90;17.20;;;;;;;8.60;96.59;97257.13;109750;1278;22157;-86
2023/05/04 00:54:38;;;;;;;;;;;;;;;;;;;;;
2023/05/04 00:57:58;;;;;;;14.30;10.70;;;;;;;8.50;96.06;97253.32;109730;1278;22311;-87
2023/05/04 01:01:24;;;;;;;14.00;9.80;;;;;;;8.43;95.54;97252.52;109670;1279;137748;-86
2023/05/04 01:04:36;;;;;;;13.20;9.90;;;;;;;8.33;95.27;97251.42;106611;1278;25303;-86
2023/05/04 01:08:11;;;;;;;14.70;10.10;;;;;;;8.21;95.19;97249.49;109737;1278;138211;-86
2023/05/04 01:11:37;;;;;;;12.90;10.00;;;;;;;8.09;95.06;97249.61;109171;1277;22556;-86
2023/05/04 01:14:48;;;;;;;11.40;9.60;;;;;;;8.00;95.14;97250.10;107883;1279;22625;-86
2023/05/04 01:18:15;;;;;;;13.60;10.10;;;;;;;7.95;95.15;97246.77;109856;1283;22174;-86
2023/05/04 01:21:20;;;;;;;;;;;;;;;;;;;;;
2023/05/04 01:24:39;;;;;;;;;;;;;;;;;;;;;
2023/05/04 01:28:10;;;;;;;12.50;9.70;;;;;;;7.80;95.52;97242.68;106572;1278;22556;-86
2023/05/04 01:31:36;;;;;;;11.50;9.10;;;;;;;7.70;95.26;97242.23;109608;1280;139295;-86
2023/05/04 01:35:03;;;;;;;8.80;7.80;;;;;;;7.62;95.29;97239.98;109165;1277;24961;-86
2023/05/04 01:38:22;;;;;;;;;;;;;;;;;;;;;
2023/05/04 01:41:43;;;;;;;;;;;;;;;;;;;;;
2023/05/04 01:44:09;;;;;;;12.30;9.70;;;;;;;7.32;95.74;97251.77;107156;1276;22547;-85
2023/05/04 01:47:04;;;;;;;;;;;;;;;;;;;;;
2023/05/04 01:50:13;;;;;;;14.10;9.30;;;;;;;7.21;96.19;97246.06;106541;1280;138351;-85
2023/05/04 01:53:40;;;;;;;9.70;8.70;;;;;;;7.15;96.14;97234.86;109823;1277;22972;-85
2023/05/04 01:57:07;;;;;;;11.50;8.10;;;;;;;7.13;96.55;97236.22;109739;1277;22262;-86
2023/05/04 02:00:34;;;;;;;10.80;8.80;;;;;;;7.15;96.87;97238.54;106734;1277;22623;-83
2023/05/04 02:03:30;;;;;;;;;;;;;;;;;;;;;
2023/05/04 02:05:56;;;;;;;12.50;10.00;;;;;;;7.13;97.00;97234.85;106655;1283;137777;-85
2023/05/04 02:08:32;;;;;;;12.80;10.70;;;;;;;7.09;97.09;97232.52;106696;1277;22547;-85
2023/05/04 02:10:58;;;;;;;11.40;9.90;;;;;;;7.04;97.00;97235.02;106698;1282;22531;-85
2023/05/04 02:14:25;;;;;;;12.90;10.50;;;;;;;6.98;97.22;97236.20;106628;1283;138385;-85
2023/05/04 02:16:51;;;;;;;11.00;9.70;;;;;;;6.93;97.40;97227.71;107140;1283;22710;-86
2023/05/04 02:19:17;;;;;;;10.60;9.10;;;;;;;6.92;97.55;97228.67;106623;1283;138837;-86
2023/05/04 02:21:43;;;;;;;12.60;10.80;;;;;;;6.92;97.56;97226.93;106732;1281;22536;-85
2023/05/04 02:24:09;;;;;;;12.20;8.50;;;;;;;6.94;98.05;97222.46;106686;1281;138987;-85
2023/05/04 02:27:03;;;;;;;;;;;;;;;;;;;;;
2023/05/04 02:29:43;;;;;;;12.40;9.80;;;;;;;6.95;98.04;97220.20;106606;1283;22594;-86
2023/05/04 02:32:41;;;;;;;11.70;10.30;;;;;;;7.01;98.31;97217.77;106781;1284;24258;-86
2023/05/04 02:35:19;;;;;;;12.40;10.20;;;;;;;7.02;97.92;97219.39;106759;1276;22538;-86
2023/05/04 02:38:09;;;;;;;11.60;9.80;;;;;;;6.99;97.86;97217.54;106665;1280;138065;-85
2023/05/04 02:41:22;;;;;;;13.40;10.10;;;;;;;6.93;97.65;97218.45;106682;1266;23469;-86
2023/05/04 02:44:25;;;;;;;13.40;10.10;;;;;;;6.85;97.44;97218.33;106681;1280;139232;-86
2023/05/04 02:46:58;;;;;;;11.60;8.70;;;;;;;6.81;97.60;97216.57;106719;1277;22535;-86
2023/05/04 02:49:25;;;;;;;14.20;9.20;;;;;;;6.77;97.30;97214.54;106502;1281;138287;-86
2023/05/04 02:51:50;;;;;;;10.90;9.30;;;;;;;6.78;97.66;97218.05;106691;1283;22561;-86
2023/05/04 02:54:29;;;;;;;10.30;8.60;;;;;;;6.78;97.45;97216.39;106497;1284;137791;-85
2023/05/04 02:57:17;;;;;;;;;;;;;;;;;;;;;
2023/05/04 02:59:53;;;;;;;10.70;9.50;;;;;;;6.66;97.88;97223.64;106737;1283;137783;-86
2023/05/04 03:03:12;;;;;;;9.90;8.60;;;;;;;6.67;98.22;97222.52;106643;1281;23285;-86
2023/05/04 03:06:37;;;;;;;;;;;;;;;;;;;;;
2023/05/04 03:09:13;;;;;;;11.50;9.20;;;;;;;6.66;97.75;97228.27;106682;1279;22528;-86
2023/05/04 03:12:22;;;;;;;;;;;;;;;;;;;;;
2023/05/04 03:14:51;;;;;;;11.30;8.70;;;;;;;6.59;97.69;97234.73;106811;1283;22648;-86
2023/05/04 03:17:17;;;;;;;9.90;8.90;;;;;;;6.58;97.76;97235.70;106619;1283;22546;-86
2023/05/04 03:19:46;;;;;;;11.60;9.20;;;;;;;6.60;98.23;97235.14;106628;1276;137505;-86
2023/05/04 03:22:20;;;;;;;12.50;9.30;;;;;;;6.62;98.20;97231.56;106715;1283;26662;-86
2023/05/04 03:24:46;;;;;;;9.60;8.60;;;;;;;6.59;97.96;97233.55;106523;1284;138401;-86
2023/05/04 03:27:22;;;;;;;9.10;8.10;;;;;;;6.58;98.05;97230.91;106694;1279;22676;-86
2023/05/04 03:29:56;;;;;;;9.90;7.70;;;;;;;6.62;98.38;97232.77;106695;1284;22534;-85
2023/05/04 03:32:31;;;;;;;9.30;7.70;;;;;;;6.61;98.10;97232.71;104759;1284;2655540;-86
2023/05/04 03:35:31;;;;;;;9.40;7.20;;;;;;;6.57;97.92;97234.23;106683;1283;22641;-86
2023/05/04 03:38:06;;;;;;;10.00;7.50;;;;;;;6.59;98.40;97236.44;106638;1284;138702;-86
2023/05/04 03:40:46;;;;;;;9.90;8.40;;;;;;;6.64;98.38;97239.83;106761;1278;22542;-86
2023/05/04 03:43:34;;;;;;;14.00;9.70;;;;;;;6.61;98.15;97236.79;106595;1277;137486;-86
2023/05/04 03:46:08;;;;;;;14.00;9.70;;;;;;;6.54;98.36;97234.48;106684;1284;25249;-86
2023/05/04 03:48:34;;;;;;;11.40;9.10;;;;;;;6.52;98.69;97232.33;106602;1284;138181;-85
2023/05/04 03:51:07;;;;;;;11.60;10.30;;;;;;;6.44;98.52;97228.17;106638;1283;24319;-86
2023/05/04 03:53:34;;;;;;;10.70;9.10;;;;;;;6.43;99.10;97228.44;106812;1276;22533;-86
2023/05/04 03:56:03;;;;;;;10.70;9.00;;;;;;;6.41;99.01;97231.41;106606;1284;138969;-85
2023/05/04 03:59:03;;;;;;;;;;;;;;;;;;;;;
2023/05/04 04:02:10;;;;;;;;;;;;;;;;;;;;;
2023/05/04 04:04:52;;;;;;;11.10;9.00;;;;;;;6.32;99.61;97246.79;106724;1284;22530;-85
2023/05/04 04:07:44;;;;;;;11.20;9.10;;;;;;;6.29;99.44;97242.55;106566;1284;138291;-86
2023/05/04 04:10:14;;;;;;;13.30;9.60;;;;;;;6.33;99.76;97242.39;106705;1276;22543;-86
2023/05/04 04:12:49;;;;;;;11.30;9.20;;;;;;;6.30;99.86;97241.05;106519;1284;138872;-86
2023/05/04 04:15:18;;;;;;;11.30;9.70;;;;;;;6.32;99.92;97242.66;106684;1284;22588;-85
2023/05/04 04:17:44;;;;;;;12.10;10.30;;;;;;;6.34;100.00;97243.52;106803;1276;25477;-86
2023/05/04 04:20:14;;;;;;;10.30;9.00;;;;;;;6.44;100.00;97243.46;106593;1283;138915;-86
2023/05/04 04:22:41;;;;;;;11.80;10.00;;;;;;;6.47;100.00;97247.33;107997;1283;24376;-85
2023/05/04 04:25:15;;;;;;;12.00;9.80;;;;;;;6.46;100.00;97241.97;106704;1283;138933;-86
2023/05/04 04:27:44;;;;;;;12.30;9.50;;;;;;;6.50;100.00;97239.37;106627;1277;22548;-85
2023/05/04 04:30:27;;;;;;;;;;;;;;;;;;;;;
2023/05/04 04:33:11;;;;;;;13.10;9.80;;;;;;;6.57;100.00;97250.61;106690;1283;22742;-85
2023/05/04 04:35:41;;;;;;;11.30;10.10;;;;;;;6.54;100.00;97246.72;106721;1284;24262;-86
2023/05/04 04:38:14;;;;;;;10.40;9.00;;;;;;;6.55;100.00;97248.89;106560;1284;138535;-85
2023/05/04 04:40:43;;;;;;;12.00;9.70;;;;;;;6.51;100.00;97249.96;106755;1277;22552;-86
2023/05/04 04:43:10;;;;;;;12.80;10.40;;;;;;;6.48;100.00;97246.42;106699;1283;139104;-86
2023/05/04 04:45:43;;;;;;;13.90;10.60;;;;;;;6.54;100.00;97249.02;106714;1278;24303;-86
2023/05/04 04:48:10;;;;;;;11.80;9.40;;;;;;;6.63;100.00;97248.52;106623;1281;139070;-86
2023/05/04 04:50:41;;;;;;;12.60;10.40;;;;;;;6.68;100.00;97250.34;106571;1283;25261;-86
2023/05/04 04:53:08;;;;;;;16.70;11.40;;;;;;;6.70;100.00;97246.59;106689;1284;22533;-85
2023/05/04 04:55:41;;;;;;;12.70;10.40;;;;;;;6.74;100.00;97249.05;106675;1282;138165;-85
2023/05/04 04:58:08;;;;;;;15.90;11.60;;;;;;;6.76;100.00;97251.88;106733;1284;23316;-86
2023/05/04 05:00:51;;;;;;;14.80;12.50;;;;;;;6.81;100.00;97249.69;106531;1283;138992;-86
2023/05/04 05:03:22;;;;;;;12.50;11.10;;;;;;;6.81;100.00;97256.00;106671;1283;22537;-85
2023/05/04 05:05:54;;;;;;;14.70;12.60;;;;;;;6.78;100.00;97258.75;106743;1284;24210;-85
2023/05/04 05:08:20;;;;;;;13.20;11.20;;;;;;;6.81;100.00;97260.16;106739;1283;22786;-86
2023/05/04 05:10:56;;;;;;;14.60;12.60;;;;;;;6.87;100.00;97258.10;106672;1283;22540;-86
2023/05/04 05:13:22;;;;;;;13.00;10.80;;;;;;;6.94;100.00;97256.60;106604;1283;138742;-85
2023/05/04 05:15:50;;;;;;;18.00;14.00;;;;;;;7.07;100.00;97255.80;106852;1283;22718;-86
2023/05/04 05:18:16;;;;;;;18.10;16.20;;;;;;;7.23;100.00;97250.90;106587;1283;139214;-86
2023/05/04 05:20:43;;;;;;;18.50;15.40;;;;;;;7.37;100.00;97253.71;106607;1283;24291;-86
2023/05/04 05:23:09;;;;;;;18.40;16.20;;;;;;;7.50;100.00;97256.33;106694;1277;24250;-86
2023/05/04 05:25:45;;;;;;;17.30;15.10;;;;;;;7.63;100.00;97256.46;106703;1281;138594;-86
2023/05/04 05:28:12;;;;;;;17.60;14.00;;;;;;;7.75;100.00;97256.74;106726;1281;25341;-86
2023/05/04 05:30:41;;;;;;;18.10;15.30;;;;;;;7.83;100.00;97251.16;106714;1283;138490;-86
2023/05/04 05:33:12;;;;;;;17.00;13.50;;;;;;;7.90;100.00;97256.00;106709;1283;22547;-86
2023/05/04 05:36:13;;;;;;;19.90;17.00;;;;;;;8.03;100.00;97256.24;106857;1277;25549;-86
2023/05/04 05:39:02;;;;;;;;;;;;;;;;;;;;;
2023/05/04 05:41:55;;;;;;;;;;;;;;;;;;;;;
2023/05/04 05:44:28;;;;;;;25.30;19.70;;;;;;;8.29;100.00;97256.80;106678;1283;26618;-86
2023/05/04 05:47:39;;;;;;;23.40;18.60;;;;;;;8.41;100.00;97255.74;106835;1280;25324;-85
2023/05/04 05:50:31;;;;;;;25.50;18.50;;;;;;;8.56;100.00;97254.44;106737;1277;139074;-86
2023/05/04 05:52:56;;;;;;;18.40;14.90;;;;;;;8.67;100.00;97253.05;106655;1284;22574;-86
2023/05/04 05:55:25;;;;;;;23.60;19.50;;;;;;;8.78;100.00;97256.77;106601;1282;139760;-86
2023/05/04 05:57:51;;;;;;;22.60;18.60;;;;;;;8.84;100.00;97257.64;106771;1274;22598;-86
2023/05/04 06:01:11;;;;;;;25.50;19.90;;;;;;;8.90;100.00;97256.99;106969;1283;139616;-86
2023/05/04 06:04:22;;;;;;;;;;;;;;;;;;;;;
2023/05/04 06:06:55;;;;;;;34.70;25.60;;;;;;;9.00;100.00;97252.33;107171;1276;139331;-86
2023/05/04 06:09:44;;;;;;;22.30;17.80;;;;;;;9.05;100.00;97251.00;107231;1278;22565;-87
2023/05/04 06:12:40;;;;;;;;;;;;;;;;;;;;;
2023/05/04 06:16:07;;;;;;;19.00;14.10;;;;;;;9.25;100.00;97257.88;109692;1283;22425;-86
2023/05/04 06:19:26;;;;;;;;;;;;;;;;;;;;;
2023/05/04 06:22:54;;;;;;;17.20;13.90;;;;;;;9.56;100.00;97258.27;109597;1280;22314;-86
2023/05/04 06:26:21;;;;;;;16.20;13.70;;;;;;;9.64;100.00;97263.80;109492;1280;138792;-86
2023/05/04 06:29:40;;;;;;;18.00;14.50;;;;;;;9.68;100.00;97265.35;109802;1283;22194;-86
2023/05/04 06:33:06;;;;;;;18.10;15.20;;;;;;;9.73;100.00;97268.66;108713;1276;138902;-86
2023/05/04 06:36:25;;;;;;;;;;;;;;;;;;;;;
2023/05/04 06:39:36;;;;;;;;;;;;;;;;;;;;;
2023/05/04 06:43:04;;;;;;;19.00;15.70;;;;;;;9.75;99.64;97261.45;106903;1283;22586;-85
2023/05/04 06:46:15;;;;;;;;;;;;;;;;;;;;;
2023/05/04 06:49:27;;;;;;;18.40;14.20;;;;;;;9.81;99.45;97251.76;106652;1283;138888;-86
2023/05/04 06:52:54;;;;;;;22.00;16.60;;;;;;;9.80;99.32;97253.02;106575;1283;22538;-85
2023/05/04 06:56:21;;;;;;;17.30;14.30;;;;;;;9.83;97.62;97249.72;106685;1283;138385;-85
2023/05/04 06:59:40;;;;;;;15.10;13.40;;;;;;;9.87;96.80;97247.58;106585;1284;23010;-85
2023/05/04 07:03:00;;;;;;;17.10;14.90;;;;;;;9.86;96.81;97249.79;106771;1283;137762;-86
2023/05/04 07:06:01;;;;;;;;;;;;;;;;;;;;;
2023/05/04 07:09:20;;;;;;;;;;;;;;;;;;;;;
2023/05/04 07:12:45;;;;;;;;;;;;;;;;;;;;;
2023/05/04 07:16:13;;;;;;;18.40;14.30;;;;;;;9.88;96.21;97253.73;109643;1280;22236;-86
2023/05/04 07:19:40;;;;;;;16.80;13.50;;;;;;;9.88;95.81;97252.06;109684;1276;138626;-86
2023/05/04 07:23:03;;;;;;;16.40;13.10;;;;;;;9.90;95.68;97248.34;109759;1283;22203;-86
2023/05/04 07:26:07;;;;;;;;;;;;;;;;;;;;;
2023/05/04 07:28:36;;;;;;;12.50;10.20;;;;;;;9.88;92.56;97248.23;107071;1277;25027;-85
2023/05/04 07:31:56;;;;;;;14.80;11.60;;;;;;;9.88;93.26;97260.64;106546;1283;137837;-85
2023/05/04 07:35:23;;;;;;;12.90;11.20;;;;;;;9.94;94.26;97254.58;106764;1280;22547;-85
2023/05/04 07:38:50;;;;;;;13.20;11.30;;;;;;;10.02;94.28;97254.73;106528;1284;138537;-85
2023/05/04 07:42:16;;;;;;;15.00;10.90;;;;;;;10.09;94.83;97256.25;106673;1283;24333;-86
2023/05/04 07:45:43;;;;;;;12.70;10.80;;;;;;;10.12;91.27;97259.41;109856;1283;22195;-86
2023/05/04 07:49:01;;;;;;;;;;;;;;;;;;;;;
2023/05/04 07:52:29;;;;;;;12.60;11.00;;;;;;;10.11;91.02;97260.02;109303;1283;22535;-85
2023/05/04 07:55:25;;;;;;;;;;;;;;;;;;;;;
2023/05/04 07:58:36;;;;;;;13.80;10.80;;;;;;;10.34;91.58;97260.70;106681;1284;22536;-85
2023/05/04 08:01:19;;;;;;;15.90;13.50;;;;;;;10.53;91.31;97263.40;106732;1277;138184;-86
2023/05/04 08:04:47;;;;;;;16.10;12.60;;;;;;;10.62;90.26;97265.60;106791;1283;24291;-86
2023/05/04 08:08:06;;;;;;;11.90;8.90;;;;;;;10.63;89.58;97269.77;106504;1283;138551;-86
2023/05/04 08:11:17;;;;;;;;;;;;;;;;;;;;;
2023/05/04 08:14:47;;;;;;;10.30;6.90;;;;;;;10.76;86.46;97267.73;109758;1277;137770;-86
2023/05/04 08:18:14;;;;;;;12.70;9.70;;;;;;;10.84;86.77;97268.25;109805;1283;22193;-86
2023/05/04 08:21:33;;;;;;;12.10;9.60;;;;;;;10.85;85.14;97266.75;109675;1281;138164;-86
2023/05/04 08:25:01;;;;;;;10.90;7.90;;;;;;;10.82;83.54;97266.36;109804;1283;22215;-86
2023/05/04 08:28:27;;;;;;;9.30;7.30;;;;;;;10.87;82.90;97267.27;109771;1283;22283;-86
2023/05/04 08:31:46;;;;;;;;;;;;;;;;;;;;;
2023/05/04 08:35:13;;;;;;;11.00;8.60;;;;;;;11.02;81.93;97271.92;106761;1277;23206;-86
2023/05/04 08:38:32;;;;;;;;;;;;;;;;;;;;;
2023/05/04 08:42:07;;;;;;;9.20;7.40;;;;;;;11.06;82.32;97282.51;106766;1283;24235;-86
2023/05/04 08:45:32;;;;;;;;;;;;;;;;;;;;;
2023/05/04 08:48:53;;;;;;;;;;;;;;;;;;;;;
2023/05/04 08:52:19;;;;;;;;;;;;;;;;;;;;;
2023/05/04 08:55:37;;;;;;;9.40;7.20;;;;;;;11.11;80.62;97274.58;106599;1283;138215;-86
2023/05/04 08:59:04;;;;;;;8.90;7.20;;;;;;;11.21;79.32;97272.06;106635;1276;22535;-86
2023/05/04 09:02:34;;;;;;;8.00;7.10;;;;;;;11.30;79.89;97267.63;106533;1284;138247;-86
2023/05/04 09:06:00;;;;;;;9.50;7.50;;;;;;;11.38;78.18;97272.85;106609;1276;22547;-85
2023/05/04 09:09:26;;;;;;;9.10;7.10;;;;;;;11.39;79.38;97272.98;106553;1283;137589;-86
2023/05/04 09:12:54;;;;;;;12.40;8.60;;;;;;;11.52;79.43;97277.08;106659;1283;25692;-85
2023/05/04 09:16:17;;;;;;;;;;;;;;;;;;;;;
2023/05/04 09:19:45;;;;;;;9.50;7.40;;;;;;;11.59;77.74;97276.66;106539;1278;138443;-86
2023/05/04 09:23:16;;;;;;;11.00;8.10;;;;;;;11.57;76.19;97267.86;106541;1276;24714;-85
2023/05/04 09:26:44;;;;;;;;;;;;;;;;;;;;;
2023/05/04 09:30:12;;;;;;;7.80;6.70;;;;;;;11.82;78.56;97269.66;107964;1280;22536;-85
2023/05/04 09:33:45;;;;;;;10.60;7.60;;;;;;;11.95;78.18;97268.81;106699;1260;137943;-85
2023/05/04 09:37:14;;;;;;;9.10;7.00;;;;;;;12.02;75.75;97268.09;106729;1283;22534;-85
2023/05/04 09:40:41;;;;;;;8.60;6.70;;;;;;;12.07;75.41;97263.66;109765;1274;22210;-86
2023/05/04 09:44:07;;;;;;;8.40;7.40;;;;;;;12.04;73.26;97263.92;109656;1283;138023;-86
2023/05/04 09:47:35;;;;;;;8.50;6.30;;;;;;;12.02;73.73;97260.14;106709;1277;24380;-86
2023/05/04 09:50:54;;;;;;;9.00;6.70;;;;;;;12.13;75.10;97254.08;106560;1283;137494;-86
2023/05/04 09:54:20;;;;;;;8.90;5.90;;;;;;;12.21;72.87;97247.52;106641;1283;25396;-85
2023/05/04 09:57:50;;;;;;;6.90;6.10;;;;;;;12.26;74.02;97243.41;107894;1283;138581;-86
2023/05/04 10:01:17;;;;;;;9.20;6.60;;;;;;;12.37;74.12;97242.01;106856;1277;24376;-85
2023/05/04 10:04:43;;;;;;;8.60;5.70;;;;;;;12.49;72.78;97236.16;109872;1276;22478;-86
2023/05/04 10:08:09;;;;;;;7.50;5.80;;;;;;;12.49;71.34;97237.52;106999;1281;138066;-86
2023/05/04 10:11:36;;;;;;;7.40;6.40;;;;;;;12.41;68.87;97234.63;109739;1276;22200;-85
2023/05/04 10:15:03;;;;;;;7.90;5.70;;;;;;;12.38;69.76;97234.81;106640;1283;138015;-85
2023/05/04 10:18:33;;;;;;;7.60;6.30;;;;;;;12.45;69.48;97230.88;106712;1283;22481;-86
2023/05/04 10:22:11;;;;;;;7.40;6.20;;;;;;;12.57;71.27;97225.34;106515;1283;137941;-86
2023/05/04 10:25:41;;;;;;;7.30;5.60;;;;;;;12.61;70.11;97229.96;106622;1283;22661;-85
2023/05/04 10:29:11;;;;;;;6.60;5.40;;;;;;;12.66;69.34;97218.85;106837;1277;22595;-86
2023/05/04 10:32:41;;;;;;;8.70;6.30;;;;;;;12.71;68.08;97221.01;109474;1283;138251;-86
2023/05/04 10:36:07;;;;;;;7.00;5.60;;;;;;;12.76;69.43;97222.79;108190;1279;22677;-85
2023/05/04 10:39:37;;;;;;;6.30;5.10;;;;;;;12.92;70.64;97215.66;106588;1284;137579;-85
2023/05/04 10:43:04;;;;;;;7.30;5.50;;;;;;;13.03;68.48;97211.02;109823;1283;22332;-85
2023/05/04 10:46:39;;;;;;;6.60;5.40;;;;;;;13.14;69.11;97206.45;106700;1283;22586;-86
2023/05/04 10:50:03;;;;;;;;;;;;;;;;;;;;;
2023/05/04 10:53:33;;;;;;;8.00;5.90;;;;;;;13.28;67.37;97211.55;106690;1268;24353;-85
2023/05/04 10:56:54;;;;;;;;;;;;;;;;;;;;;
2023/05/04 11:00:22;;;;;;;8.30;6.00;;;;;;;13.33;67.00;97203.71;107334;1283;22710;-85
2023/05/04 11:03:48;;;;;;;6.10;5.40;;;;;;;13.39;64.91;97197.27;106369;1277;137515;-85
2023/05/04 11:07:15;;;;;;;7.70;6.00;;;;;;;13.43;67.20;97197.64;106666;1283;22529;-85
2023/05/04 11:10:41;;;;;;;8.00;6.20;;;;;;;13.51;66.42;97195.70;106628;1276;24252;-85
2023/05/04 11:14:11;;;;;;;8.10;5.90;;;;;;;13.56;64.02;97189.10;109642;1276;137750;-86
2023/05/04 11:17:47;;;;;;;14.50;6.10;;;;;;;13.50;62.34;97182.75;109060;1283;22566;-85
2023/05/04 11:21:23;;;;;;;8.40;6.40;;;;;;;13.49;62.76;97181.09;106564;1280;137683;-86
2023/05/04 11:24:56;;;;;;;7.90;5.30;;;;;;;13.53;63.07;97175.00;106626;1283;23017;-85
2023/05/04 11:28:23;;;;;;;7.60;5.40;;;;;;;13.57;62.84;97172.08;109716;1277;138880;-86
2023/05/04 11:31:55;;;;;;;8.40;6.60;;;;;;;13.58;63.51;97165.63;106457;1283;25358;-85
2023/05/04 11:35:22;;;;;;;7.30;6.00;;;;;;;13.67;62.01;97164.91;106533;1277;23443;-85
2023/05/04 11:38:49;;;;;;;8.20;5.80;;;;;;;13.75;62.97;97167.16;106627;1283;137774;-85
2023/05/04 11:42:08;;;;;;;8.20;6.60;;;;;;;13.77;61.89;97164.22;106663;1277;22661;-85
2023/05/04 11:45:35;;;;;;;7.30;5.70;;;;;;;13.79;62.26;97164.44;106670;1274;137473;-85
2023/05/04 11:48:46;;;;;;;9.00;6.40;;;;;;;13.81;61.54;97162.05;106703;1277;22553;-85
2023/05/04 11:52:06;;;;;;;7.50;6.10;;;;;;;13.85;61.88;97161.55;106699;1280;138282;-85
2023/05/04 11:55:33;;;;;;;;;;;;;;;;;;;;;
2023/05/04 11:59:03;;;;;;;6.40;5.60;;;;;;;13.98;59.62;97156.89;109806;1284;23210;-86
2023/05/04 12:02:30;;;;;;;7.80;5.60;;;;;;;13.92;58.58;97159.13;106609;1276;138102;-86
2023/05/04 12:05:57;;;;;;;7.40;5.50;;;;;;;13.95;58.80;97155.42;106741;1276;22535;-85
2023/05/04 12:09:26;;;;;;;7.30;4.70;;;;;;;13.99;60.40;97151.54;106610;1283;137668;-86
2023/05/04 12:12:53;;;;;;;5.60;4.40;;;;;;;13.99;56.91;97151.81;106742;1278;22552;-85
2023/05/04 12:16:29;;;;;;;6.90;5.40;;;;;;;14.00;57.87;97140.95;106622;1281;138054;-86
2023/05/04 12:20:02;;;;;;;5.50;4.30;;;;;;;14.04;59.24;97139.91;106432;1283;24239;-85
2023/05/04 12:23:31;;;;;;;5.70;4.20;;;;;;;14.13;57.99;97140.06;106762;1280;22573;-86
2023/05/04 12:26:58;;;;;;;6.40;4.70;;;;;;;14.20;58.85;97137.13;106538;1276;137637;-85
2023/05/04 12:30:25;;;;;;;5.10;4.60;;;;;;;14.27;57.85;97136.23;106621;1280;25587;-85
2023/05/04 12:33:49;;;;;;;6.90;5.00;;;;;;;14.31;57.82;97138.39;106691;1280;137897;-85
2023/05/04 12:37:16;;;;;;;5.70;4.70;;;;;;;14.29;56.20;97134.79;106760;1280;22620;-85
2023/05/04 12:40:42;;;;;;;5.30;4.30;;;;;;;14.29;57.97;97133.07;106707;1283;26552;-86
2023/05/04 12:44:10;;;;;;;6.10;4.60;;;;;;;14.36;56.01;97130.33;106749;1283;24417;-86
2023/05/04 12:47:34;;;;;;;6.10;4.10;;;;;;;14.34;58.34;97128.46;106607;1276;23421;-85
2023/05/04 12:51:25;;;;;;;4.40;3.90;;;;;;;14.44;56.94;97127.48;106655;1277;138146;-86
2023/05/04 12:54:28;;;;;;;5.00;3.80;;;;;;;14.42;56.20;97131.42;106609;1276;25364;-86
2023/05/04 12:57:54;;;;;;;5.80;4.10;;;;;;;14.48;56.46;97126.80;106683;1283;137513;-85
2023/05/04 13:01:21;;;;;;;5.00;3.80;;;;;;;14.49;55.95;97121.23;106673;1280;22559;-85
2023/05/04 13:04:46;;;;;;;;;;;;;;;;;;;;;
2023/05/04 13:08:13;;;;;;;10.80;4.70;;;;;;;14.52;54.74;97114.24;106563;1276;26559;-86
2023/05/04 13:11:40;;;;;;;5.20;4.30;;;;;;;14.54;55.85;97118.29;106711;1277;22536;-85
2023/05/04 13:15:07;;;;;;;6.30;4.20;;;;;;;14.65;54.93;97122.85;106587;1283;138014;-86
2023/05/04 13:18:34;;;;;;;6.10;4.20;;;;;;;14.66;53.65;97121.41;106808;1283;22501;-86
2023/05/04 13:21:59;;;;;;;5.50;4.70;;;;;;;14.66;53.94;97111.80;106636;1283;137685;-85
2023/05/04 13:25:26;;;;;;;6.30;4.40;;;;;;;14.66;53.59;97107.58;109871;1283;22458;-86
2023/05/04 13:28:53;;;;;;;5.50;4.30;;;;;;;14.70;54.76;97108.88;106648;1277;25485;-86
2023/05/04 13:32:20;;;;;;;4.80;4.30;;;;;;;14.80;55.54;97105.00;106669;1283;23034;-86
2023/05/04 13:35:46;;;;;;;4.80;3.60;;;;;;;14.85;54.24;97097.97;106683;1261;22551;-85
2023/05/04 13:39:13;;;;;;;5.10;4.40;;;;;;;14.88;55.54;97086.95;106537;1277;138912;-86
2023/05/04 13:42:40;;;;;;;7.40;4.50;;;;;;;14.91;55.19;97085.95;106712;1283;22610;-85
2023/05/04 13:46:06;;;;;;;6.10;4.00;;;;;;;14.92;55.43;97083.06;106648;1275;137565;-86
2023/05/04 13:49:33;;;;;;;6.70;4.90;;;;;;;14.95;55.86;97077.64;106699;1283;22629;-86
2023/05/04 13:52:59;;;;;;;6.40;4.40;;;;;;;14.97;55.10;97075.95;106611;1283;25255;-86
2023/05/04 13:56:26;;;;;;;6.50;4.40;;;;;;;14.88;53.69;97063.64;106696;1283;25207;-86
2023/05/04 13:59:52;;;;;;;4.70;4.20;;;;;;;14.90;55.17;97058.27;106634;1277;25422;-85
2023/05/04 14:03:19;;;;;;;4.50;3.90;;;;;;;14.93;53.76;97063.95;106651;1283;138660;-85
2023/05/04 14:06:46;;;;;;;5.80;3.90;;;;;;;14.92;53.65;97061.09;106693;1283;22938;-86
2023/05/04 14:10:12;;;;;;;5.70;4.40;;;;;;;14.87;53.20;97057.52;106610;1280;137663;-85
2023/05/04 14:13:39;;;;;;;6.70;5.20;;;;;;;14.84;53.50;97050.63;106610;1277;22533;-85
2023/05/04 14:17:06;;;;;;;5.70;3.80;;;;;;;14.83;54.72;97055.05;106622;1283;23059;-86
2023/05/04 14:20:33;;;;;;;5.80;4.30;;;;;;;14.88;54.33;97055.11;106671;1276;22528;-86
2023/05/04 14:23:59;;;;;;;4.60;3.60;;;;;;;14.92;54.44;97049.84;106735;1283;22847;-86
2023/05/04 14:27:26;;;;;;;4.90;4.40;;;;;;;14.97;54.54;97047.53;106610;1283;138358;-86
2023/05/04 14:30:52;;;;;;;4.40;3.60;;;;;;;14.96;54.07;97049.40;106703;1283;23442;-85
2023/05/04 14:34:22;;;;;;;5.00;4.30;;;;;;;14.97;52.89;97054.69;109653;1283;138438;-86
2023/05/04 14:37:48;;;;;;;6.20;5.10;;;;;;;14.95;53.31;97052.32;106610;1283;22598;-85
2023/05/04 14:41:15;;;;;;;5.10;4.20;;;;;;;14.96;53.24;97050.60;109779;1280;22935;-86
2023/05/04 14:44:34;;;;;;;;;;;;;;;;;;;;;
2023/05/04 14:48:09;;;;;;;6.40;4.10;;;;;;;15.05;54.47;97049.41;109788;1283;22954;-86
2023/05/04 14:51:35;;;;;;;4.40;3.90;;;;;;;15.08;54.56;97050.91;109696;1280;138734;-87
2023/05/04 14:55:01;;;;;;;5.20;4.30;;;;;;;15.11;54.37;97042.38;109884;1283;22211;-87
2023/05/04 14:58:28;;;;;;;6.60;4.50;;;;;;;15.08;53.37;97041.16;109638;1280;138321;-86
2023/05/04 15:01:56;;;;;;;4.80;4.20;;;;;;;15.08;55.03;97038.39;106706;1283;25292;-86
2023/05/04 15:05:21;;;;;;;5.50;5.00;;;;;;;15.07;53.47;97036.58;106737;1280;26622;-86
2023/05/04 15:08:48;;;;;;;5.40;4.20;;;;;;;15.04;53.83;97034.83;106680;1283;23274;-86
2023/05/04 15:12:16;;;;;;;5.50;4.40;;;;;;;15.05;54.41;97034.23;106595;1284;22809;-85
2023/05/04 15:15:42;;;;;;;4.60;4.20;;;;;;;15.08;54.66;97031.90;106526;1283;138997;-86
2023/05/04 15:19:09;;;;;;;6.20;4.70;;;;;;;15.06;53.12;97029.23;106705;1281;25410;-86
2023/05/04 15:22:35;;;;;;;5.50;4.60;;;;;;;15.06;54.83;97028.84;106587;1283;138028;-86
2023/05/04 15:26:03;;;;;;;4.80;4.30;;;;;;;15.10;55.11;97027.08;106669;1283;22798;-85
2023/05/04 15:29:54;;;;;;;5.80;4.80;;;;;;;15.12;54.09;97021.94;106716;1280;22575;-85
2023/05/04 15:33:04;;;;;;;7.30;5.60;;;;;;;15.11;54.68;97021.96;106386;1276;138158;-86
2023/05/04 15:36:30;;;;;;;;;;;;;;;;;;;;;
2023/05/04 15:39:57;;;;;;;5.30;4.80;;;;;;;15.04;54.13;97019.69;106527;1281;137554;-86
2023/05/04 15:43:24;;;;;;;6.20;3.80;;;;;;;14.97;54.39;97018.96;106642;1283;23440;-86
2023/05/04 15:46:51;;;;;;;7.20;5.10;;;;;;;14.97;55.00;97016.80;106474;1283;137747;-86
2023/05/04 15:50:18;;;;;;;8.40;5.30;;;;;;;14.99;55.24;97015.21;106758;1283;22527;-86
2023/05/04 15:53:45;;;;;;;6.00;4.60;;;;;;;15.03;55.43;97015.50;106658;1275;24273;-85
2023/05/04 15:57:11;;;;;;;5.30;4.60;;;;;;;15.01;54.50;97011.63;106498;1283;137950;-85